North Royalton, Ohio
Current Conditions -  °F | °C
As of 8:51 PM on Wednesday 22 Oct 2014 (Local Time) from KCLE Reporting Station
Overcast Overcast  
Wind Chill: 51°   Ceiling: 3900
Heat Index: 51°   Visibility: 10mi
Dew Point: 44°   Wind: 16mph
Humidity: 77%   Direction: 340°NNW
Pressure: 30.26"   Gusts: NA
Location:  41.31°N, 81.73°W
Report Text: KCLE 230051Z 34014KT 10SM OVC039 11/07 A3026 RMK AO2 SLP248 T01060067 $
Loading
Personal Weather Stations






























Interactive Weather Map
Tropical Storm Tracking
New forecast layout! Learn more

10-Day Weather Forecast

Advertisements
Track Severe Weather on mobile